Wellman, Texas
Current Conditions -  °F | °C
As of 12:55 PM on Sunday 23 Nov 2014 (Local Time) from KGNC Reporting Station
Clear Clear  
Wind Chill: 66°   Ceiling: Unl
Heat Index: 66°   Visibility: 7mi
Dew Point: 23°   Wind: 35mph
Humidity: 20%   Direction: 290°WNW
Pressure: 29.69"   Gusts: 41mph
Location:  33.05°N, 102.43°W
Report Text: KGNC 231855Z AUTO 29030G36KT 7SM CLR 19/M05 A2969 RMK AO2 T01881049
Loading
Personal Weather Stations






























Interactive Weather Map New forecast layout! Learn more

10-Day Weather Forecast

Advertisements
Track Severe Weather on mobile